KPUW/PUW METAR and TAF weather

Enter ICAO airport designator
Station Type Date Time Source
KPUW METAR 2019/04/19 07:53 UTC NOAA

KPUW 190753Z AUTO 06003KT 10SM OVC100 14/08 A3006 RMK AO2 SLP173 T01390078 402000056


Station Type Date Time Source
KPUW Decoded METAR 2019/04/19 07:53 UTC NOAA

PULLMAN/MOSCOW RGNL AIRPORT , WA, United States (KPUW) 46-45N 117-07W 773M
Apr 19, 2019 - 03:53 AM EDT / 2019.04.19 0753 UTC
Wind: from the ENE (060 degrees) at 3 MPH (3 KT):0
Visibility: 10 mile(s):0
Sky conditions: overcast
Temperature: 57.0 F (13.9 C)
Dew Point: 46.0 F (7.8 C)
Relative Humidity: 66%
Pressure (altimeter): 30.06 in. Hg (1017 hPa)
ob: KPUW 190753Z AUTO 06003KT 10SM OVC100 14/08 A3006 RMK AO2 SLP173 T01390078 402000056
cycle: 8

Station Type Date Time Source
KPUW TAF 2019/04/19 06:24 UTC NOAA

TAF KPUW 190522Z 1906/2006 VRB04KT P6SM SCT200
FM191900 25013G22KT P6SM SCT080 OVC100
FM192200 27013G20KT P6SM VCTS BKN070CB OVC100
FM200200 26009KT P6SM VCSH BKN060 OVC080

Example: see airport list